createdAt,value
2023-07-25T00:01:17.156Z,7.10
2023-07-25T00:03:49.234Z,6.60
2023-07-25T00:06:18.928Z,6.40
2023-07-25T00:08:48.862Z,6.30
2023-07-25T00:11:17.425Z,7.20
2023-07-25T00:13:45.815Z,6.90
2023-07-25T00:16:14.124Z,6.80
2023-07-25T00:18:42.485Z,6.90
2023-07-25T00:21:10.873Z,7.20
2023-07-25T00:23:39.159Z,6.60
2023-07-25T00:26:07.459Z,6.90
2023-07-25T00:28:35.684Z,6.90
2023-07-25T00:31:08.762Z,6.10
2023-07-25T00:33:37.165Z,7.00
2023-07-25T00:36:05.627Z,6.90
2023-07-25T00:38:33.852Z,6.90
2023-07-25T00:41:02.113Z,6.40
2023-07-25T00:43:30.480Z,6.00
2023-07-25T00:45:58.743Z,7.10
2023-07-25T00:48:27.090Z,7.00
2023-07-25T00:50:55.953Z,6.60
2023-07-25T00:53:26.826Z,6.70
2023-07-25T00:55:55.257Z,6.40
2023-07-25T00:58:23.549Z,6.80
2023-07-25T01:00:51.728Z,7.60
2023-07-25T01:03:20.152Z,6.80
2023-07-25T01:05:51.479Z,6.30
2023-07-25T01:08:19.698Z,7.90
2023-07-25T01:10:48.030Z,7.90
2023-07-25T01:13:16.328Z,7.20
2023-07-25T01:15:45.791Z,7.80
2023-07-25T01:18:15.464Z,8.60
2023-07-25T01:20:44.687Z,8.80
2023-07-25T01:23:14.980Z,8.40
2023-07-25T01:25:47.461Z,7.20
2023-07-25T01:28:15.684Z,7.70
2023-07-25T01:30:43.977Z,8.20
2023-07-25T01:33:12.175Z,7.50
2023-07-25T01:35:40.470Z,7.90
2023-07-25T01:38:08.800Z,7.90
2023-07-25T01:40:40.840Z,8.20
2023-07-25T01:43:10.380Z,8.10
2023-07-25T01:45:38.659Z,7.50
2023-07-25T01:48:06.905Z,8.50
2023-07-25T01:50:35.190Z,6.90
2023-07-25T01:53:03.422Z,7.60
2023-07-25T01:55:31.685Z,7.50
2023-07-25T01:57:59.933Z,8.20
2023-07-25T02:00:28.275Z,7.90
2023-07-25T02:02:56.554Z,7.60
2023-07-25T02:05:24.937Z,8.10
2023-07-25T02:07:53.305Z,9.10
2023-07-25T02:10:21.580Z,9.00
2023-07-25T02:12:49.956Z,7.80
2023-07-25T02:15:18.630Z,8.60
2023-07-25T02:17:46.911Z,8.50
2023-07-25T02:20:15.469Z,8.60
2023-07-25T02:22:43.658Z,8.50
2023-07-25T02:25:11.994Z,9.10
2023-07-25T02:27:40.600Z,9.70
2023-07-25T02:30:09.034Z,8.10
2023-07-25T02:32:37.335Z,8.50
2023-07-25T02:35:06.126Z,8.40
2023-07-25T02:37:34.357Z,8.10
2023-07-25T02:40:03.652Z,8.70
2023-07-25T02:42:31.844Z,9.10
2023-07-25T02:45:00.356Z,9.30
2023-07-25T02:47:28.563Z,9.20
2023-07-25T02:49:57.639Z,8.60
2023-07-25T02:52:25.809Z,8.90
2023-07-25T02:54:54.044Z,9.40
2023-07-25T02:57:22.450Z,10.00
2023-07-25T02:59:50.895Z,8.40
2023-07-25T03:02:19.160Z,8.90
2023-07-25T03:04:47.460Z,8.50
2023-07-25T03:07:15.710Z,9.80
2023-07-25T03:09:44.710Z,9.20
2023-07-25T03:12:13.002Z,9.30
2023-07-25T03:14:41.163Z,8.70
2023-07-25T03:17:09.514Z,9.20
2023-07-25T03:19:37.709Z,8.20
2023-07-25T03:22:06.188Z,8.80
2023-07-25T03:24:34.474Z,9.40
2023-07-25T03:27:02.772Z,7.90
2023-07-25T03:29:30.947Z,8.40
2023-07-25T03:31:59.141Z,8.30
2023-07-25T03:34:27.444Z,8.50
2023-07-25T03:36:56.056Z,8.00
2023-07-25T03:39:24.275Z,9.00
2023-07-25T03:41:52.652Z,8.00
2023-07-25T03:44:21.412Z,8.30
2023-07-25T03:46:49.583Z,9.10
2023-07-25T03:49:17.918Z,7.90
2023-07-25T03:51:46.249Z,8.50
2023-07-25T03:54:40.472Z,8.30
2023-07-25T03:57:08.797Z,8.20
2023-07-25T03:59:37.051Z,8.20
2023-07-25T04:02:05.736Z,8.70
2023-07-25T04:04:34.094Z,8.30
2023-07-25T04:07:02.381Z,8.70
2023-07-25T04:09:30.700Z,8.80
2023-07-25T04:11:59.063Z,8.70
2023-07-25T04:14:47.214Z,8.90
2023-07-25T04:17:15.648Z,9.10
2023-07-25T04:19:43.858Z,9.80
2023-07-25T04:22:12.837Z,8.50
2023-07-25T04:24:41.394Z,8.90
2023-07-25T04:27:09.647Z,8.40
2023-07-25T04:29:37.859Z,8.70
2023-07-25T04:32:06.679Z,9.10
2023-07-25T04:34:35.086Z,8.70
2023-07-25T04:37:03.451Z,9.40
2023-07-25T04:39:31.663Z,8.40
2023-07-25T04:41:59.859Z,8.00
2023-07-25T04:44:28.271Z,8.60
2023-07-25T04:46:56.625Z,8.20
2023-07-25T04:49:26.518Z,8.00
2023-07-25T04:51:54.773Z,8.50
2023-07-25T04:54:23.075Z,8.10
2023-07-25T04:56:51.317Z,7.50
2023-07-25T04:59:20.430Z,7.70
2023-07-25T05:01:49.006Z,8.30
2023-07-25T05:04:17.170Z,8.20
2023-07-25T05:06:45.408Z,8.10
2023-07-25T05:09:13.932Z,8.50
2023-07-25T05:11:42.068Z,7.60
2023-07-25T05:14:11.106Z,6.90
2023-07-25T05:16:39.270Z,7.70
2023-07-25T05:19:07.539Z,8.10
2023-07-25T05:21:35.945Z,6.90
2023-07-25T05:24:04.305Z,8.20
2023-07-25T05:26:32.635Z,7.00
2023-07-25T05:29:00.923Z,8.00
2023-07-25T05:31:29.481Z,8.30
2023-07-25T05:33:58.151Z,7.20
2023-07-25T05:36:29.071Z,7.40
2023-07-25T05:38:57.384Z,6.90
2023-07-25T05:41:25.690Z,8.00
2023-07-25T05:43:53.959Z,7.40
2023-07-25T05:46:22.304Z,7.80
2023-07-25T05:48:50.689Z,7.20
2023-07-25T05:51:19.062Z,7.60
2023-07-25T05:53:49.144Z,6.60
2023-07-25T05:56:17.659Z,6.90
2023-07-25T05:58:46.397Z,6.60
2023-07-25T06:01:14.934Z,7.40
2023-07-25T06:03:46.148Z,7.20
2023-07-25T06:06:14.715Z,7.70
2023-07-25T06:08:45.584Z,7.60
2023-07-25T06:11:13.675Z,7.00
2023-07-25T06:13:42.099Z,7.50
2023-07-25T06:16:10.667Z,7.30
2023-07-25T06:18:38.928Z,7.50
2023-07-25T06:21:07.464Z,7.50
2023-07-25T06:23:35.930Z,7.50
2023-07-25T06:26:04.197Z,7.60
2023-07-25T06:28:32.863Z,7.50
2023-07-25T06:31:01.283Z,8.10
2023-07-25T06:33:30.304Z,8.10
2023-07-25T06:35:58.875Z,7.60
2023-07-25T06:38:29.562Z,7.80
2023-07-25T06:41:04.404Z,8.00
2023-07-25T06:43:33.494Z,8.00
2023-07-25T06:46:04.880Z,8.20
2023-07-25T06:51:31.181Z,6.80
2023-07-25T06:54:02.066Z,7.90
2023-07-25T06:56:33.376Z,8.00
2023-07-25T06:59:01.792Z,7.50
2023-07-25T07:01:30.644Z,7.80
2023-07-25T07:04:01.110Z,7.70
2023-07-25T07:06:30.598Z,8.40
2023-07-25T07:09:00.769Z,9.10
2023-07-25T07:11:31.808Z,7.60
2023-07-25T07:14:00.854Z,7.50
2023-07-25T07:16:29.357Z,8.60
2023-07-25T07:19:00.680Z,8.30
2023-07-25T07:21:29.526Z,7.50
2023-07-25T07:23:59.181Z,7.80
2023-07-25T07:26:27.725Z,8.20
2023-07-25T07:29:01.132Z,8.30
2023-07-25T07:31:30.057Z,7.80
2023-07-25T07:34:14.690Z,8.20
2023-07-25T07:36:44.400Z,7.20
2023-07-25T07:39:12.957Z,7.50
2023-07-25T07:41:41.146Z,7.40
2023-07-25T07:44:09.450Z,7.80
2023-07-25T07:46:37.893Z,7.60
2023-07-25T07:49:07.019Z,7.40
2023-07-25T07:51:35.697Z,7.90
2023-07-25T07:54:04.021Z,7.60
2023-07-25T07:56:32.515Z,7.30
2023-07-25T07:59:02.716Z,7.40
2023-07-25T08:01:31.300Z,7.60
2023-07-25T08:04:00.278Z,8.10
2023-07-25T08:06:29.603Z,7.30
2023-07-25T08:08:57.921Z,6.80
2023-07-25T08:11:26.075Z,7.00
2023-07-25T08:13:54.372Z,7.50
2023-07-25T08:16:23.532Z,7.30
2023-07-25T08:18:52.112Z,6.80
2023-07-25T08:21:20.208Z,6.70
2023-07-25T08:23:48.563Z,7.50
2023-07-25T08:26:41.549Z,7.70
2023-07-25T08:29:09.926Z,7.20
2023-07-25T08:31:38.209Z,6.70
2023-07-25T08:34:06.602Z,7.70
2023-07-25T08:36:34.958Z,7.20
2023-07-25T08:39:03.051Z,7.80
2023-07-25T08:41:36.926Z,7.40
2023-07-25T08:46:36.466Z,7.30
2023-07-25T08:49:04.807Z,6.90
2023-07-25T08:52:04.461Z,7.40
2023-07-25T08:54:38.287Z,6.80
2023-07-25T08:57:07.640Z,7.30
2023-07-25T08:59:37.346Z,8.20
2023-07-25T09:02:07.479Z,8.30
2023-07-25T09:04:36.275Z,7.10
2023-07-25T09:07:04.988Z,7.60
2023-07-25T09:09:33.187Z,7.20
2023-07-25T09:12:01.640Z,7.50
2023-07-25T09:14:29.954Z,7.30
2023-07-25T09:16:58.315Z,6.60
2023-07-25T09:19:26.913Z,6.60
2023-07-25T09:21:55.940Z,7.00
2023-07-25T09:24:24.321Z,6.30
2023-07-25T09:26:53.280Z,7.20
2023-07-25T09:29:28.195Z,7.30
2023-07-25T09:31:56.397Z,7.00
2023-07-25T09:34:26.596Z,6.70
2023-07-25T09:36:54.811Z,6.50
2023-07-25T09:39:23.091Z,7.60
2023-07-25T09:41:52.252Z,6.80
2023-07-25T09:44:21.559Z,6.50
2023-07-25T09:46:55.270Z,6.50
2023-07-25T09:49:26.442Z,6.30
2023-07-25T09:52:04.605Z,6.50
2023-07-25T09:54:32.884Z,6.80
2023-07-25T09:57:01.218Z,6.90
2023-07-25T09:59:30.855Z,6.70
2023-07-25T10:01:59.501Z,7.70
2023-07-25T10:04:28.762Z,7.20
2023-07-25T10:07:00.822Z,7.10
2023-07-25T10:09:31.753Z,7.00
2023-07-25T10:12:00.229Z,7.20
2023-07-25T10:14:28.497Z,7.20
2023-07-25T10:17:00.228Z,6.90
2023-07-25T10:19:28.816Z,6.50
2023-07-25T10:21:57.132Z,6.20
2023-07-25T10:24:25.991Z,7.10
2023-07-25T10:26:59.334Z,6.90
2023-07-25T10:29:43.598Z,7.60
2023-07-25T10:32:17.212Z,6.90
2023-07-25T10:34:53.857Z,6.50
2023-07-25T10:37:29.602Z,7.30
2023-07-25T10:40:09.977Z,7.10
2023-07-25T10:43:04.394Z,7.90
2023-07-25T10:45:35.498Z,7.00
2023-07-25T10:48:33.119Z,7.50
2023-07-25T10:51:06.337Z,7.80
2023-07-25T10:53:35.882Z,8.10
2023-07-25T10:56:07.773Z,7.90
2023-07-25T10:58:40.180Z,7.50
2023-07-25T11:01:08.751Z,7.20
2023-07-25T11:03:38.939Z,8.80
2023-07-25T11:06:10.332Z,7.50
2023-07-25T11:08:43.529Z,7.90
2023-07-25T11:11:14.320Z,7.90
2023-07-25T11:13:43.496Z,7.70
2023-07-25T11:16:15.415Z,7.20
2023-07-25T11:18:52.440Z,8.60
2023-07-25T11:21:21.629Z,7.70
2023-07-25T11:24:07.768Z,8.00
2023-07-25T11:26:38.698Z,7.40
2023-07-25T11:29:14.760Z,8.00
2023-07-25T11:31:50.679Z,7.60
2023-07-25T11:34:21.884Z,8.30
2023-07-25T11:36:53.104Z,8.30
2023-07-25T11:39:23.435Z,8.10
2023-07-25T11:41:52.343Z,8.30
2023-07-25T11:45:12.486Z,7.80
2023-07-25T11:47:48.521Z,8.10
2023-07-25T11:50:29.486Z,8.50
2023-07-25T11:53:01.797Z,8.30
2023-07-25T11:55:31.253Z,7.80
2023-07-25T11:58:03.884Z,7.10
2023-07-25T12:00:43.932Z,8.40
2023-07-25T12:03:20.470Z,8.10
2023-07-25T12:06:08.145Z,9.20
2023-07-25T12:08:41.265Z,8.30
2023-07-25T12:11:18.633Z,7.70
2023-07-25T12:13:47.934Z,8.50
2023-07-25T12:16:35.926Z,8.20
2023-07-25T12:19:17.968Z,7.50
2023-07-25T12:21:47.303Z,7.90
2023-07-25T12:24:17.525Z,7.90
2023-07-25T12:26:57.823Z,7.70
2023-07-25T12:29:29.281Z,7.70
2023-07-25T12:31:58.145Z,8.40
2023-07-25T12:34:26.636Z,7.70
2023-07-25T12:36:55.055Z,8.10
2023-07-25T12:39:31.951Z,7.70
2023-07-25T12:42:00.384Z,7.90
2023-07-25T12:44:28.643Z,7.40
2023-07-25T12:46:56.869Z,8.50
2023-07-25T12:49:25.286Z,8.80
2023-07-25T12:51:53.904Z,9.10
2023-07-25T12:54:22.598Z,8.50
2023-07-25T12:57:06.906Z,9.00
2023-07-25T12:59:38.114Z,8.50
2023-07-25T13:02:07.482Z,8.70
2023-07-25T13:04:38.561Z,8.60
2023-07-25T13:07:07.026Z,9.60
2023-07-25T13:09:37.676Z,8.80
2023-07-25T13:12:08.837Z,9.30
2023-07-25T13:14:40.431Z,10.00
2023-07-25T13:17:08.731Z,9.50
2023-07-25T13:19:37.000Z,9.70
2023-07-25T13:22:05.627Z,9.60
2023-07-25T13:24:36.655Z,9.00
2023-07-25T13:27:05.251Z,9.00
2023-07-25T13:29:33.738Z,9.40
2023-07-25T13:32:01.990Z,8.80
2023-07-25T13:34:30.284Z,7.90
2023-07-25T13:36:58.572Z,7.00
2023-07-25T13:39:28.861Z,7.80
2023-07-25T13:41:57.133Z,6.70
2023-07-25T13:44:25.585Z,6.90
2023-07-25T13:46:53.820Z,6.60
2023-07-25T13:49:22.215Z,6.50
2023-07-25T13:51:50.696Z,7.20
2023-07-25T13:54:20.573Z,7.50
2023-07-25T13:56:49.609Z,7.10
2023-07-25T13:59:17.991Z,7.20
2023-07-25T14:01:46.579Z,7.70
2023-07-25T14:04:17.313Z,8.60
2023-07-25T14:06:48.314Z,7.60
2023-07-25T14:09:21.145Z,7.80
2023-07-25T14:11:50.188Z,7.80
2023-07-25T14:14:29.487Z,7.80
2023-07-25T14:17:02.465Z,8.10
2023-07-25T14:19:31.625Z,8.20
2023-07-25T14:22:01.818Z,9.40
2023-07-25T14:24:31.147Z,6.80
2023-07-25T14:26:59.696Z,6.70
2023-07-25T14:29:30.666Z,7.30
2023-07-25T14:31:59.720Z,7.40
2023-07-25T14:34:28.353Z,7.00
2023-07-25T14:36:56.647Z,6.20
2023-07-25T14:39:25.026Z,6.60
2023-07-25T14:41:54.387Z,6.20
2023-07-25T14:44:26.946Z,6.60
2023-07-25T14:46:55.471Z,5.80
2023-07-25T14:49:23.793Z,6.00
2023-07-25T14:51:53.674Z,5.90
2023-07-25T14:54:21.999Z,7.60
2023-07-25T14:56:50.259Z,6.50
2023-07-25T14:59:18.603Z,5.40
2023-07-25T15:01:48.165Z,6.60
2023-07-25T15:04:16.608Z,6.40
2023-07-25T15:06:48.667Z,5.70
2023-07-25T15:09:17.045Z,5.80
2023-07-25T15:11:51.642Z,5.60
2023-07-25T15:14:23.057Z,5.30
2023-07-25T15:16:56.813Z,5.50
2023-07-25T15:19:27.428Z,6.00
2023-07-25T15:21:59.147Z,5.90
2023-07-25T15:24:32.628Z,5.70
2023-07-25T15:27:05.093Z,6.30
2023-07-25T15:29:36.355Z,6.30
2023-07-25T15:32:05.092Z,6.00
2023-07-25T15:34:33.441Z,7.20
2023-07-25T15:37:01.781Z,6.90
2023-07-25T15:39:29.929Z,6.70
2023-07-25T15:41:59.808Z,7.10
2023-07-25T15:44:30.328Z,6.70
2023-07-25T15:47:08.436Z,6.90
2023-07-25T15:49:38.980Z,6.60
2023-07-25T15:52:10.392Z,6.90
2023-07-25T15:54:40.927Z,6.90
2023-07-25T15:57:11.861Z,6.30
2023-07-25T15:59:42.455Z,6.90
2023-07-25T16:02:13.897Z,6.90
2023-07-25T16:04:45.328Z,6.20
2023-07-25T16:07:14.245Z,6.70
2023-07-25T16:09:50.143Z,6.00
2023-07-25T16:12:23.846Z,5.50
2023-07-25T16:15:05.165Z,6.40
2023-07-25T16:17:36.098Z,6.20
2023-07-25T16:20:28.583Z,6.20
2023-07-25T16:22:58.759Z,6.50
2023-07-25T16:25:31.212Z,6.80
2023-07-25T16:28:02.030Z,7.30
2023-07-25T16:30:31.638Z,7.40
2023-07-25T16:32:59.881Z,6.50
2023-07-25T16:35:30.133Z,7.40
2023-07-25T16:38:03.344Z,6.70
2023-07-25T16:40:36.913Z,6.70
2023-07-25T16:43:16.915Z,6.50
2023-07-25T16:45:50.818Z,6.20
2023-07-25T16:48:21.293Z,6.80
2023-07-25T16:50:49.890Z,5.80
2023-07-25T16:53:20.559Z,5.70
2023-07-25T16:55:48.813Z,6.30
2023-07-25T16:58:17.124Z,6.50
2023-07-25T17:00:52.518Z,5.30
2023-07-25T17:03:21.190Z,6.00
2023-07-25T17:05:49.646Z,5.90
2023-07-25T17:08:20.606Z,5.80
2023-07-25T17:10:49.146Z,6.20
2023-07-25T17:13:20.967Z,5.20
2023-07-25T17:15:49.656Z,6.00
2023-07-25T17:18:18.037Z,6.00
2023-07-25T17:20:46.702Z,5.80
2023-07-25T17:23:23.028Z,6.00
2023-07-25T17:25:57.664Z,5.60
2023-07-25T17:28:26.675Z,5.70
2023-07-25T17:30:58.958Z,5.80
2023-07-25T17:33:27.703Z,6.20
2023-07-25T17:35:56.125Z,6.40
2023-07-25T17:38:34.008Z,6.50
2023-07-25T17:41:25.550Z,6.20
2023-07-25T17:48:10.450Z,5.80
2023-07-25T17:51:51.226Z,6.30
2023-07-25T17:54:39.497Z,6.10
2023-07-25T17:57:09.618Z,7.10
2023-07-25T17:59:38.056Z,6.00
2023-07-25T18:02:08.394Z,5.40
2023-07-25T18:04:36.864Z,6.90
2023-07-25T18:07:05.443Z,6.00
2023-07-25T18:09:33.787Z,6.30
2023-07-25T18:12:02.487Z,6.50
2023-07-25T18:14:33.896Z,6.10
2023-07-25T18:17:02.234Z,6.00
2023-07-25T18:19:30.673Z,5.80
2023-07-25T18:22:00.784Z,6.50
2023-07-25T18:24:29.218Z,6.40
2023-07-25T18:26:57.745Z,5.90
2023-07-25T18:29:42.587Z,6.60
2023-07-25T18:32:11.143Z,5.70
2023-07-25T18:34:40.926Z,6.20
2023-07-25T18:37:14.396Z,6.30
2023-07-25T18:40:08.375Z,6.20
2023-07-25T18:42:38.737Z,6.10
2023-07-25T18:47:53.532Z,7.50
2023-07-25T18:50:25.280Z,7.50
2023-07-25T18:52:53.627Z,7.20
2023-07-25T18:55:26.097Z,7.70
2023-07-25T18:57:56.645Z,7.50
2023-07-25T19:00:25.686Z,6.70
2023-07-25T19:02:55.796Z,6.80
2023-07-25T19:05:24.288Z,7.40
2023-07-25T19:07:52.607Z,9.80
2023-07-25T19:10:20.930Z,11.40
2023-07-25T19:12:49.235Z,12.00
2023-07-25T19:15:18.636Z,10.00
2023-07-25T19:17:47.648Z,8.20
2023-07-25T19:20:15.884Z,7.40
2023-07-25T19:22:44.262Z,6.30
2023-07-25T19:25:12.505Z,6.80
2023-07-25T19:27:41.620Z,10.20
2023-07-25T19:30:10.544Z,13.50
2023-07-25T19:32:38.917Z,12.00
2023-07-25T19:35:10.311Z,17.30
2023-07-25T19:37:42.906Z,13.20
2023-07-25T19:40:11.516Z,11.80
2023-07-25T19:42:40.562Z,12.30
2023-07-25T19:45:09.452Z,14.00
2023-07-25T19:47:37.849Z,14.30
2023-07-25T19:50:06.997Z,16.00
2023-07-25T19:52:35.379Z,16.40
2023-07-25T19:55:03.707Z,11.80
2023-07-25T19:57:31.965Z,9.50
2023-07-25T20:00:00.313Z,9.60
2023-07-25T20:02:28.862Z,13.90
2023-07-25T20:04:57.165Z,12.40
2023-07-25T20:07:25.554Z,10.50
2023-07-25T20:09:54.026Z,9.70
2023-07-25T20:12:22.266Z,7.70
2023-07-25T20:14:51.930Z,8.20
2023-07-25T20:17:20.225Z,7.20
2023-07-25T20:19:48.899Z,7.50
2023-07-25T20:22:17.200Z,7.50
2023-07-25T20:24:45.520Z,7.40
2023-07-25T20:27:16.483Z,7.20
2023-07-25T20:29:44.802Z,7.10
2023-07-25T20:32:13.167Z,7.50
2023-07-25T20:34:41.781Z,6.90
2023-07-25T20:37:10.217Z,6.90
2023-07-25T20:39:38.569Z,7.10
2023-07-25T20:42:07.198Z,8.00
2023-07-25T20:44:35.894Z,7.70
2023-07-25T20:47:04.451Z,7.00
2023-07-25T20:49:32.701Z,7.40
2023-07-25T20:52:00.995Z,7.50
2023-07-25T20:54:29.292Z,6.50
2023-07-25T20:56:57.490Z,7.00
2023-07-25T20:59:25.761Z,7.70
2023-07-25T21:01:54.152Z,7.20
2023-07-25T21:04:22.479Z,7.30
2023-07-25T21:06:50.804Z,6.50
2023-07-25T21:09:19.334Z,7.20
2023-07-25T21:11:47.716Z,6.90
2023-07-25T21:14:16.076Z,6.80
2023-07-25T21:16:44.532Z,6.00
2023-07-25T21:19:13.100Z,6.80
2023-07-25T21:21:41.465Z,6.50
2023-07-25T21:24:10.018Z,5.80
2023-07-25T21:26:38.404Z,5.50
2023-07-25T21:29:06.687Z,5.80
2023-07-25T21:31:35.042Z,5.60
2023-07-25T21:34:04.361Z,5.60
2023-07-25T21:36:33.063Z,6.50
2023-07-25T21:39:02.128Z,6.90
2023-07-25T21:41:30.342Z,6.40
2023-07-25T21:43:58.710Z,6.30
2023-07-25T21:46:28.429Z,6.90
2023-07-25T21:48:57.699Z,6.30
2023-07-25T21:51:26.026Z,6.00
2023-07-25T21:53:54.245Z,5.50
2023-07-25T21:56:22.556Z,5.50
2023-07-25T21:58:50.829Z,6.30
2023-07-25T22:01:19.168Z,5.90
2023-07-25T22:08:22.051Z,5.60
2023-07-25T22:10:51.228Z,5.20
2023-07-25T22:13:20.272Z,5.80
2023-07-25T22:15:48.852Z,6.70
2023-07-25T22:18:20.477Z,6.50
2023-07-25T22:21:15.185Z,5.90
2023-07-25T22:23:43.416Z,6.30
2023-07-25T22:26:11.870Z,5.40
2023-07-25T22:28:40.135Z,6.00
2023-07-25T22:31:08.387Z,6.10
2023-07-25T22:33:36.709Z,4.90
2023-07-25T22:36:05.085Z,5.80
2023-07-25T22:38:33.284Z,6.40
2023-07-25T22:41:01.660Z,6.00
2023-07-25T22:43:29.863Z,5.70
2023-07-25T22:45:58.244Z,6.00
2023-07-25T22:48:27.205Z,5.80
2023-07-25T22:51:21.307Z,5.90
2023-07-25T22:53:49.691Z,5.90
2023-07-25T22:56:18.059Z,5.70
2023-07-25T22:58:46.416Z,5.70
2023-07-25T23:01:14.784Z,6.00
2023-07-25T23:03:43.203Z,5.90
2023-07-25T23:06:11.497Z,5.50
2023-07-25T23:08:39.877Z,5.40
2023-07-25T23:11:08.189Z,4.60
2023-07-25T23:13:36.522Z,5.40
2023-07-25T23:16:05.431Z,5.70
2023-07-25T23:18:33.669Z,6.20
2023-07-25T23:21:02.436Z,6.40
2023-07-25T23:23:30.756Z,5.60
2023-07-25T23:25:59.062Z,5.30
2023-07-25T23:28:27.318Z,6.20
2023-07-25T23:30:55.689Z,6.20
2023-07-25T23:33:24.211Z,5.90
2023-07-25T23:35:52.503Z,6.70
2023-07-25T23:38:20.929Z,6.80
2023-07-25T23:40:49.224Z,7.20
2023-07-25T23:43:17.403Z,6.20
2023-07-25T23:45:45.652Z,6.90
2023-07-25T23:48:13.985Z,6.10
2023-07-25T23:50:42.296Z,7.10
2023-07-25T23:53:10.629Z,6.70
2023-07-25T23:55:38.848Z,7.10
2023-07-25T23:58:07.133Z,6.50
